createdAt,value
2022-10-30T00:00:48.646Z,10.50
2022-10-30T00:03:16.733Z,10.50
2022-10-30T00:05:45.719Z,10.60
2022-10-30T00:08:14.356Z,10.70
2022-10-30T00:10:43.313Z,11.00
2022-10-30T00:13:10.659Z,11.20
2022-10-30T00:15:38.022Z,11.40
2022-10-30T00:18:05.813Z,11.60
2022-10-30T00:20:33.304Z,11.70
2022-10-30T00:23:00.484Z,11.70
2022-10-30T00:25:27.681Z,11.70
2022-10-30T00:27:54.621Z,11.70
2022-10-30T00:30:21.622Z,11.80
2022-10-30T00:32:48.498Z,11.80
2022-10-30T00:35:15.539Z,11.80
2022-10-30T00:37:42.527Z,11.80
2022-10-30T00:40:16.228Z,12.00
2022-10-30T00:42:43.237Z,12.20
2022-10-30T00:45:16.017Z,12.50
2022-10-30T00:48:03.126Z,12.70
2022-10-30T00:50:34.695Z,12.60
2022-10-30T00:53:17.557Z,13.20
2022-10-30T00:55:52.660Z,13.20
2022-10-30T00:58:26.630Z,13.40
2022-10-30T01:00:57.276Z,13.50
2022-10-30T01:03:26.521Z,13.40
2022-10-30T01:05:58.515Z,13.40
2022-10-30T01:08:25.722Z,13.50
2022-10-30T01:10:52.712Z,13.90
2022-10-30T01:13:22.641Z,14.10
2022-10-30T01:16:31.598Z,14.50
2022-10-30T01:19:13.640Z,14.00
2022-10-30T01:22:02.423Z,14.30
2022-10-30T01:24:42.057Z,13.80
2022-10-30T01:27:11.922Z,14.10
2022-10-30T01:30:28.035Z,13.90
2022-10-30T01:33:32.863Z,13.50
2022-10-30T01:36:16.217Z,13.80
2022-10-30T01:38:54.447Z,14.40
2022-10-30T01:41:21.606Z,14.40
2022-10-30T01:43:57.911Z,14.40
2022-10-30T01:46:47.812Z,14.60
2022-10-30T01:49:55.551Z,14.30
2022-10-30T01:52:46.458Z,14.10
2022-10-30T01:55:16.182Z,14.10
2022-10-30T01:57:49.842Z,14.70
2022-10-30T02:00:17.685Z,14.80
2022-10-30T02:02:44.972Z,15.10
2022-10-30T02:05:19.593Z,15.20
2022-10-30T02:07:46.679Z,15.40
2022-10-30T02:10:13.668Z,15.50
2022-10-30T02:12:41.201Z,15.60
2022-10-30T02:15:08.965Z,15.60
2022-10-30T02:17:36.029Z,15.70
2022-10-30T02:20:03.039Z,16.00
2022-10-30T02:22:30.055Z,17.00
2022-10-30T02:24:57.025Z,16.20
2022-10-30T02:27:23.884Z,16.10
2022-10-30T02:29:50.806Z,16.40
2022-10-30T02:32:18.892Z,16.40
2022-10-30T02:34:45.860Z,16.60
2022-10-30T02:37:12.713Z,16.40
2022-10-30T02:39:39.754Z,16.40
2022-10-30T02:42:06.714Z,15.90
2022-10-30T02:44:33.695Z,16.00
2022-10-30T02:47:01.097Z,16.10
2022-10-30T02:49:28.025Z,16.20
2022-10-30T02:51:54.928Z,16.20
2022-10-30T02:54:21.890Z,16.40
2022-10-30T02:56:48.857Z,16.60
2022-10-30T02:59:15.807Z,16.80
2022-10-30T03:01:42.888Z,16.90
2022-10-30T03:04:10.056Z,17.00
2022-10-30T03:06:36.955Z,17.00
2022-10-30T03:09:04.193Z,17.20
2022-10-30T03:11:31.043Z,17.30
2022-10-30T03:13:58.212Z,17.40
2022-10-30T03:16:26.817Z,17.50
2022-10-30T03:18:53.786Z,17.60
2022-10-30T03:21:22.569Z,17.80
2022-10-30T03:23:52.242Z,17.70
2022-10-30T03:26:20.211Z,17.80
2022-10-30T03:28:47.354Z,17.90
2022-10-30T03:31:16.806Z,19.00
2022-10-30T03:33:44.613Z,18.00
2022-10-30T03:36:13.200Z,18.10
2022-10-30T03:38:40.641Z,17.80
2022-10-30T03:41:07.788Z,17.90
2022-10-30T03:43:34.775Z,17.80
2022-10-30T03:46:01.827Z,17.60
2022-10-30T03:48:29.616Z,17.60
2022-10-30T03:50:58.650Z,17.70
2022-10-30T03:53:26.665Z,17.70
2022-10-30T03:55:57.629Z,17.90
2022-10-30T03:58:24.645Z,17.70
2022-10-30T04:00:51.496Z,17.80
2022-10-30T04:03:18.671Z,17.90
2022-10-30T04:05:45.692Z,17.90
2022-10-30T04:08:14.245Z,18.20
2022-10-30T04:10:45.638Z,18.10
2022-10-30T04:13:14.100Z,18.10
2022-10-30T04:15:41.531Z,18.10
2022-10-30T04:18:14.011Z,18.20
2022-10-30T04:20:40.916Z,18.20
2022-10-30T04:23:12.594Z,18.20
2022-10-30T04:25:39.487Z,18.40
2022-10-30T04:28:06.465Z,18.40
2022-10-30T04:30:35.426Z,18.40
2022-10-30T04:33:04.320Z,18.50
2022-10-30T04:35:33.811Z,18.50
2022-10-30T04:38:02.759Z,18.50
2022-10-30T04:40:33.805Z,18.40
2022-10-30T04:43:01.529Z,18.40
2022-10-30T04:45:28.906Z,18.50
2022-10-30T04:48:05.636Z,18.60
2022-10-30T04:50:34.128Z,18.40
2022-10-30T04:53:03.270Z,18.60
2022-10-30T04:55:30.610Z,18.80
2022-10-30T04:57:59.029Z,18.90
2022-10-30T05:00:27.719Z,19.20
2022-10-30T05:02:55.014Z,19.20
2022-10-30T05:05:21.934Z,19.20
2022-10-30T05:07:48.822Z,19.30
2022-10-30T05:10:19.992Z,19.30
2022-10-30T05:12:47.202Z,19.30
2022-10-30T05:15:15.076Z,19.20
2022-10-30T05:17:42.238Z,19.30
2022-10-30T05:20:10.538Z,19.40
2022-10-30T05:22:39.088Z,19.70
2022-10-30T05:25:06.501Z,19.70
2022-10-30T05:27:33.533Z,19.90
2022-10-30T05:30:00.590Z,19.90
2022-10-30T05:32:27.684Z,19.80
2022-10-30T05:34:54.789Z,19.90
2022-10-30T05:37:21.985Z,19.70
2022-10-30T05:39:49.119Z,19.40
2022-10-30T05:42:16.111Z,18.90
2022-10-30T05:45:02.990Z,18.90
2022-10-30T05:47:30.144Z,19.10
2022-10-30T05:49:57.153Z,19.80
2022-10-30T05:52:24.047Z,19.20
2022-10-30T05:54:50.940Z,21.30
2022-10-30T05:57:18.070Z,21.40
2022-10-30T05:59:45.417Z,21.80
2022-10-30T06:02:12.431Z,21.50
2022-10-30T06:04:39.359Z,21.40
2022-10-30T06:07:06.289Z,21.40
2022-10-30T06:09:33.256Z,21.40
2022-10-30T06:12:00.192Z,21.50
2022-10-30T06:14:27.188Z,22.50
2022-10-30T06:16:54.071Z,21.50
2022-10-30T06:19:21.031Z,21.50
2022-10-30T06:21:48.063Z,21.50
2022-10-30T06:24:15.218Z,21.60
2022-10-30T06:26:42.174Z,21.70
2022-10-30T06:29:09.140Z,21.60
2022-10-30T06:31:36.114Z,21.60
2022-10-30T06:34:03.181Z,21.60
2022-10-30T06:36:30.004Z,21.60
2022-10-30T06:38:58.300Z,21.60
2022-10-30T06:41:29.232Z,22.40
2022-10-30T06:43:57.451Z,22.70
2022-10-30T06:46:27.388Z,23.20
2022-10-30T06:48:57.720Z,23.50
2022-10-30T06:51:25.086Z,23.80
2022-10-30T06:53:52.053Z,23.90
2022-10-30T06:56:19.026Z,24.20
2022-10-30T06:58:46.239Z,24.00
2022-10-30T07:01:13.443Z,24.30
2022-10-30T07:03:40.382Z,24.50
2022-10-30T07:06:07.703Z,24.70
2022-10-30T07:08:34.721Z,24.80
2022-10-30T07:11:01.870Z,24.90
2022-10-30T07:13:28.857Z,24.90
2022-10-30T07:15:55.803Z,25.40
2022-10-30T07:18:22.880Z,25.50
2022-10-30T07:20:56.325Z,25.40
2022-10-30T07:23:24.155Z,24.90
2022-10-30T07:25:51.103Z,24.80
2022-10-30T07:28:18.103Z,24.70
2022-10-30T07:30:45.235Z,23.60
2022-10-30T07:33:12.360Z,23.10
2022-10-30T07:35:39.389Z,23.10
2022-10-30T07:38:11.398Z,21.00
2022-10-30T07:40:38.538Z,20.20
2022-10-30T07:43:06.926Z,19.60
2022-10-30T07:45:33.977Z,19.40
2022-10-30T07:48:01.570Z,19.00
2022-10-30T07:50:29.443Z,18.80
2022-10-30T07:52:56.530Z,18.50
2022-10-30T07:55:23.821Z,17.90
2022-10-30T07:57:50.804Z,17.50
2022-10-30T08:00:18.716Z,17.10
2022-10-30T08:02:50.593Z,16.70
2022-10-30T08:05:18.305Z,16.40
2022-10-30T08:07:47.913Z,16.00
2022-10-30T08:10:15.750Z,15.40
2022-10-30T08:12:44.540Z,14.50
2022-10-30T08:15:12.448Z,13.60
2022-10-30T08:17:47.311Z,12.80
2022-10-30T08:20:16.671Z,12.80
2022-10-30T08:22:55.589Z,12.60
2022-10-30T08:25:25.834Z,12.70
2022-10-30T08:28:03.999Z,12.30
2022-10-30T08:30:34.492Z,12.00
2022-10-30T08:33:07.629Z,12.20
2022-10-30T08:38:04.764Z,12.00
2022-10-30T08:40:32.037Z,12.00
2022-10-30T08:42:59.079Z,11.70
2022-10-30T08:45:29.902Z,12.00
2022-10-30T08:48:03.513Z,12.10
2022-10-30T08:50:31.902Z,12.40
2022-10-30T08:53:04.488Z,12.40
2022-10-30T08:55:32.694Z,12.50
2022-10-30T08:58:00.423Z,12.70
2022-10-30T09:00:28.477Z,12.70
2022-10-30T09:02:56.686Z,12.80
2022-10-30T09:05:24.207Z,12.60
2022-10-30T09:07:56.980Z,12.30
2022-10-30T09:10:24.395Z,12.20
2022-10-30T09:12:56.116Z,11.90
2022-10-30T09:15:23.512Z,11.70
2022-10-30T09:17:59.443Z,11.40
2022-10-30T09:20:27.952Z,11.20
2022-10-30T09:22:54.976Z,10.80
2022-10-30T09:25:22.406Z,10.60
2022-10-30T09:27:49.548Z,10.80
2022-10-30T09:30:16.711Z,11.10
2022-10-30T09:32:43.702Z,11.10
2022-10-30T09:35:11.199Z,11.10
2022-10-30T09:37:39.034Z,10.80
2022-10-30T09:40:07.596Z,10.50
2022-10-30T09:42:43.406Z,10.10
2022-10-30T09:45:28.673Z,9.70
2022-10-30T09:48:25.459Z,9.00
2022-10-30T09:51:21.082Z,8.50
2022-10-30T09:54:15.525Z,7.90
2022-10-30T09:57:01.164Z,7.00
2022-10-30T09:59:57.351Z,5.80
2022-10-30T10:02:24.791Z,4.50
2022-10-30T10:05:00.412Z,3.80
2022-10-30T10:07:40.645Z,2.70
2022-10-30T10:10:19.907Z,2.70
2022-10-30T10:12:49.805Z,2.80
2022-10-30T10:15:45.788Z,2.80
2022-10-30T10:18:33.854Z,2.90
2022-10-30T10:21:36.677Z,3.00
2022-10-30T10:24:16.778Z,3.00
2022-10-30T10:26:51.998Z,3.10
2022-10-30T10:30:06.598Z,1.10
2022-10-30T10:32:51.340Z,1.00
2022-10-30T10:35:37.352Z,1.00
2022-10-30T10:38:22.694Z,1.00
2022-10-30T10:41:34.232Z,1.00
2022-10-30T10:44:40.326Z,1.00
2022-10-30T10:47:16.672Z,1.00
2022-10-30T10:49:59.400Z,1.00
2022-10-30T10:52:39.608Z,1.00
2022-10-30T10:55:36.344Z,1.00
2022-10-30T10:58:27.175Z,1.00
2022-10-30T11:00:57.983Z,1.00
2022-10-30T11:03:45.654Z,1.00
2022-10-30T11:06:27.375Z,1.00
2022-10-30T11:09:22.120Z,1.00
2022-10-30T11:11:51.110Z,1.00
2022-10-30T11:14:27.929Z,1.00
2022-10-30T11:17:01.897Z,1.00
2022-10-30T11:19:31.009Z,1.00
2022-10-30T11:21:59.538Z,1.00
2022-10-30T11:24:32.909Z,1.00
2022-10-30T11:27:17.851Z,1.00
2022-10-30T11:29:51.374Z,1.00
2022-10-30T11:32:22.737Z,1.00
2022-10-30T11:35:08.008Z,1.00
2022-10-30T11:37:36.999Z,1.00
2022-10-30T11:40:03.980Z,1.00
2022-10-30T11:42:31.217Z,1.00
2022-10-30T11:44:58.426Z,1.00
2022-10-30T11:47:37.135Z,1.00
2022-10-30T11:50:08.114Z,1.00
2022-10-30T11:52:41.989Z,1.00
2022-10-30T11:55:15.129Z,1.00
2022-10-30T11:57:43.500Z,1.00
2022-10-30T12:00:31.890Z,1.00
2022-10-30T12:03:01.187Z,1.00
2022-10-30T12:05:36.907Z,1.00
2022-10-30T12:08:06.825Z,1.00
2022-10-30T12:10:54.693Z,1.00
2022-10-30T12:13:23.645Z,1.00
2022-10-30T12:16:04.688Z,1.00
2022-10-30T12:18:32.997Z,1.00
2022-10-30T12:21:00.474Z,1.00
2022-10-30T12:23:28.884Z,1.00
2022-10-30T12:26:09.973Z,1.00
2022-10-30T12:28:38.276Z,1.00
2022-10-30T12:31:17.106Z,1.00
2022-10-30T12:34:04.862Z,1.00
2022-10-30T12:36:37.123Z,1.00
2022-10-30T12:39:10.559Z,1.00
2022-10-30T12:41:50.768Z,1.00
2022-10-30T12:44:35.340Z,1.00
2022-10-30T12:47:43.076Z,1.00
2022-10-30T12:50:35.253Z,1.00
2022-10-30T12:53:20.803Z,1.00
2022-10-30T12:55:56.741Z,1.00
2022-10-30T12:58:48.500Z,1.00
2022-10-30T13:01:43.768Z,1.00
2022-10-30T13:04:27.971Z,1.00
2022-10-30T13:07:13.680Z,1.00
2022-10-30T13:10:06.673Z,1.00
2022-10-30T13:12:38.735Z,1.00
2022-10-30T13:15:22.089Z,1.00
2022-10-30T13:17:49.767Z,1.00
2022-10-30T13:20:17.236Z,1.00
2022-10-30T13:22:54.064Z,1.00
2022-10-30T13:25:36.391Z,1.00
2022-10-30T13:28:07.432Z,1.00
2022-10-30T13:31:12.538Z,1.00
2022-10-30T13:33:48.020Z,1.00
2022-10-30T13:36:22.219Z,1.00
2022-10-30T13:39:12.699Z,1.00
2022-10-30T13:41:45.826Z,1.00
2022-10-30T13:44:40.931Z,1.00
2022-10-30T13:47:17.308Z,1.00
2022-10-30T13:50:39.771Z,1.00
2022-10-30T13:53:17.032Z,1.00
2022-10-30T13:55:45.119Z,1.00
2022-10-30T13:58:41.206Z,1.00
2022-10-30T14:01:40.304Z,1.00
2022-10-30T14:04:25.619Z,1.00
2022-10-30T14:07:14.487Z,1.00
2022-10-30T14:09:47.299Z,1.00
2022-10-30T14:12:42.202Z,1.00
2022-10-30T14:15:20.709Z,1.00
2022-10-30T14:18:12.954Z,1.00
2022-10-30T14:20:49.596Z,1.00
2022-10-30T14:23:35.934Z,1.00
2022-10-30T14:26:03.078Z,1.00
2022-10-30T14:28:35.735Z,1.00
2022-10-30T14:31:13.496Z,1.00
2022-10-30T14:33:40.503Z,1.00
2022-10-30T14:36:13.750Z,1.00
2022-10-30T14:38:41.200Z,1.00
2022-10-30T14:41:20.428Z,1.00
2022-10-30T14:44:15.282Z,1.00
2022-10-30T14:47:17.378Z,1.00
2022-10-30T14:50:01.953Z,1.00
2022-10-30T14:53:10.145Z,1.00
2022-10-30T14:56:03.441Z,1.00
2022-10-30T14:58:34.528Z,1.00
2022-10-30T15:01:04.608Z,1.00
2022-10-30T15:04:00.053Z,1.00
2022-10-30T15:07:20.789Z,1.00
2022-10-30T15:10:25.470Z,1.00
2022-10-30T15:13:12.188Z,1.00
2022-10-30T15:15:39.522Z,1.00
2022-10-30T15:18:16.828Z,1.00
2022-10-30T15:20:44.485Z,1.00
2022-10-30T15:23:29.524Z,1.00
2022-10-30T15:26:04.880Z,1.00
2022-10-30T15:28:36.507Z,1.00
2022-10-30T15:31:23.849Z,1.00
2022-10-30T15:33:52.143Z,1.00
2022-10-30T15:36:25.002Z,1.00
2022-10-30T15:39:13.199Z,1.00
2022-10-30T15:41:55.165Z,1.00
2022-10-30T15:44:26.563Z,1.00
2022-10-30T15:46:56.248Z,1.00
2022-10-30T15:49:32.312Z,1.00
2022-10-30T15:52:01.698Z,1.00
2022-10-30T15:54:30.407Z,1.00
2022-10-30T15:59:53.030Z,1.00
2022-10-30T16:02:23.297Z,1.00
2022-10-30T16:04:50.498Z,1.00
2022-10-30T16:07:28.235Z,1.00
2022-10-30T16:10:02.909Z,1.00
2022-10-30T16:12:34.819Z,1.00
2022-10-30T16:15:17.467Z,1.00
2022-10-30T16:17:44.488Z,1.00
2022-10-30T16:20:13.099Z,1.00
2022-10-30T16:22:40.513Z,1.00
2022-10-30T16:25:09.844Z,1.00
2022-10-30T16:27:43.913Z,1.00
2022-10-30T16:30:14.126Z,1.00
2022-10-30T16:32:42.993Z,1.00
2022-10-30T16:35:11.590Z,1.00
2022-10-30T16:37:40.719Z,1.00
2022-10-30T16:40:16.888Z,1.00
2022-10-30T16:42:59.710Z,1.00
2022-10-30T16:45:34.171Z,1.00
2022-10-30T16:48:28.710Z,1.00
2022-10-30T16:51:01.272Z,1.00
2022-10-30T16:53:29.641Z,1.00
2022-10-30T16:55:58.608Z,1.00
2022-10-30T16:58:29.690Z,1.00
2022-10-30T17:01:06.295Z,1.00
2022-10-30T17:03:41.850Z,1.00
2022-10-30T17:06:27.099Z,1.00
2022-10-30T17:08:57.703Z,1.00
2022-10-30T17:11:42.075Z,1.00
2022-10-30T17:14:21.288Z,1.00
2022-10-30T17:17:00.173Z,1.00
2022-10-30T17:19:30.140Z,1.00
2022-10-30T17:22:07.930Z,1.00
2022-10-30T17:24:37.524Z,1.00
2022-10-30T17:27:07.082Z,1.00
2022-10-30T17:29:37.299Z,1.00
2022-10-30T17:32:21.431Z,1.00
2022-10-30T17:35:01.019Z,1.00
2022-10-30T17:37:28.536Z,1.00
2022-10-30T17:39:55.481Z,1.00
2022-10-30T17:42:22.724Z,1.00
2022-10-30T17:44:49.691Z,1.30
2022-10-30T17:47:18.631Z,1.90
2022-10-30T17:49:46.554Z,1.90
2022-10-30T17:52:16.576Z,1.80
2022-10-30T17:54:44.556Z,1.70
2022-10-30T17:57:14.563Z,1.60
2022-10-30T17:59:42.379Z,1.60
2022-10-30T18:02:20.785Z,1.60
2022-10-30T18:04:49.420Z,1.60
2022-10-30T18:07:17.434Z,1.60
2022-10-30T18:09:45.065Z,1.60
2022-10-30T18:12:15.130Z,2.40
2022-10-30T18:14:43.294Z,2.60
2022-10-30T18:17:11.311Z,3.10
2022-10-30T18:19:38.404Z,3.30
2022-10-30T18:22:05.304Z,3.40
2022-10-30T18:24:32.423Z,3.30
2022-10-30T18:26:59.423Z,3.30
2022-10-30T18:29:26.334Z,3.10
2022-10-30T18:31:53.474Z,2.90
2022-10-30T18:34:21.683Z,3.00
2022-10-30T18:36:49.430Z,3.30
2022-10-30T18:39:16.729Z,3.30
2022-10-30T18:41:46.153Z,3.00
2022-10-30T18:44:18.272Z,2.80
2022-10-30T18:46:46.707Z,2.40
2022-10-30T18:49:13.930Z,2.50
2022-10-30T18:51:41.188Z,2.30
2022-10-30T18:54:13.884Z,1.90
2022-10-30T18:56:40.955Z,1.20
2022-10-30T18:59:07.968Z,1.80
2022-10-30T19:01:35.584Z,2.10
2022-10-30T19:04:03.861Z,1.40
2022-10-30T19:06:32.833Z,2.40
2022-10-30T19:09:00.067Z,2.50
2022-10-30T19:11:30.255Z,2.50
2022-10-30T19:13:58.605Z,2.50
2022-10-30T19:16:25.837Z,2.50
2022-10-30T19:18:53.275Z,2.40
2022-10-30T19:21:24.747Z,2.10
2022-10-30T19:23:51.953Z,2.10
2022-10-30T19:26:18.966Z,1.80
2022-10-30T19:28:46.342Z,2.80
2022-10-30T19:31:15.104Z,2.50
2022-10-30T19:33:42.402Z,2.90
2022-10-30T19:36:36.024Z,3.20
2022-10-30T19:39:09.113Z,3.10
2022-10-30T19:41:37.299Z,3.90
2022-10-30T19:44:04.698Z,4.00
2022-10-30T19:46:31.871Z,4.20
2022-10-30T19:49:00.094Z,4.30
2022-10-30T19:51:28.418Z,4.30
2022-10-30T19:53:55.838Z,4.20
2022-10-30T19:56:22.810Z,4.30
2022-10-30T19:58:50.077Z,4.30
2022-10-30T20:01:17.652Z,4.60
2022-10-30T20:03:44.789Z,5.60
2022-10-30T20:06:13.023Z,4.60
2022-10-30T20:08:40.834Z,4.90
2022-10-30T20:11:08.006Z,5.20
2022-10-30T20:13:35.191Z,5.10
2022-10-30T20:16:04.990Z,5.70
2022-10-30T20:18:35.144Z,5.80
2022-10-30T20:21:04.859Z,5.80
2022-10-30T20:23:31.727Z,6.10
2022-10-30T20:26:01.581Z,6.50
2022-10-30T20:28:33.448Z,6.20
2022-10-30T20:31:00.613Z,7.60
2022-10-30T20:33:27.645Z,7.20
2022-10-30T20:35:55.428Z,7.40
2022-10-30T20:38:26.263Z,7.50
2022-10-30T20:40:53.912Z,7.90
2022-10-30T20:43:24.961Z,8.00
2022-10-30T20:45:51.895Z,8.50
2022-10-30T20:48:18.800Z,9.00
2022-10-30T20:50:50.522Z,8.90
2022-10-30T20:53:17.845Z,9.40
2022-10-30T20:55:45.635Z,9.40
2022-10-30T20:58:12.594Z,9.50
2022-10-30T21:00:40.136Z,9.70
2022-10-30T21:03:07.453Z,9.70
2022-10-30T21:05:45.186Z,10.00
2022-10-30T21:08:14.116Z,10.60
2022-10-30T21:10:41.845Z,10.60
2022-10-30T21:13:10.093Z,10.80
2022-10-30T21:15:42.605Z,11.00
2022-10-30T21:18:11.449Z,11.00
2022-10-30T21:20:38.916Z,11.20
2022-10-30T21:23:06.443Z,11.00
2022-10-30T21:25:33.631Z,10.90
2022-10-30T21:28:00.877Z,10.70
2022-10-30T21:30:28.490Z,10.80
2022-10-30T21:32:55.646Z,10.40
2022-10-30T21:35:23.165Z,10.30
2022-10-30T21:37:50.244Z,10.30
2022-10-30T21:40:17.506Z,11.60
2022-10-30T21:42:48.137Z,10.70
2022-10-30T21:45:15.346Z,10.70
2022-10-30T21:47:42.360Z,11.00
2022-10-30T21:50:12.347Z,11.10
2022-10-30T21:52:40.147Z,11.00
2022-10-30T21:55:07.724Z,10.80
2022-10-30T21:57:35.625Z,10.50
2022-10-30T22:00:05.872Z,10.20
2022-10-30T22:02:34.577Z,10.10
2022-10-30T22:05:01.596Z,10.10
2022-10-30T22:07:28.615Z,9.70
2022-10-30T22:09:55.574Z,9.60
2022-10-30T22:12:22.506Z,9.50
2022-10-30T22:14:49.494Z,9.20
2022-10-30T22:17:16.474Z,9.00
2022-10-30T22:19:43.427Z,8.70
2022-10-30T22:22:11.219Z,8.30
2022-10-30T22:24:38.570Z,8.30
2022-10-30T22:27:05.514Z,8.60
2022-10-30T22:29:32.532Z,8.50
2022-10-30T22:31:59.668Z,8.30
2022-10-30T22:34:26.574Z,8.20
2022-10-30T22:36:53.458Z,8.00
2022-10-30T22:39:20.582Z,7.70
2022-10-30T22:41:47.548Z,7.40
2022-10-30T22:44:17.593Z,7.20
2022-10-30T22:46:44.737Z,7.00
2022-10-30T22:49:12.270Z,7.10
2022-10-30T22:51:39.890Z,6.90
2022-10-30T22:54:09.987Z,6.80
2022-10-30T22:56:37.608Z,6.80
2022-10-30T22:59:12.863Z,6.90
2022-10-30T23:01:41.449Z,6.80
2022-10-30T23:04:11.954Z,7.10
2022-10-30T23:06:39.001Z,7.20
2022-10-30T23:09:09.863Z,7.20
2022-10-30T23:11:36.840Z,7.50
2022-10-30T23:14:03.858Z,7.40
2022-10-30T23:16:31.028Z,7.90
2022-10-30T23:18:59.649Z,8.00
2022-10-30T23:21:28.965Z,8.20
2022-10-30T23:23:56.658Z,8.20
2022-10-30T23:26:29.753Z,8.40
2022-10-30T23:28:58.224Z,8.60
2022-10-30T23:31:30.961Z,8.80
2022-10-30T23:34:00.235Z,9.10
2022-10-30T23:36:27.573Z,9.60
2022-10-30T23:38:56.802Z,9.70
2022-10-30T23:41:26.104Z,9.60
2022-10-30T23:43:54.981Z,9.90
2022-10-30T23:46:22.514Z,9.90
2022-10-30T23:48:49.795Z,9.90
2022-10-30T23:51:17.363Z,10.00
2022-10-30T23:53:44.398Z,10.10
2022-10-30T23:56:12.071Z,10.20
2022-10-30T23:58:39.184Z,10.20
